Time;durP1;ratioP1;P1;durP2;ratioP2;P2;SDS_P1;SDS_P2;PMS_P1;PMS_P2;Temp;Humidity;BMP_temperature;BMP_pressure;BME280_temperature;BME280_humidity;BME280_pressure;Samples;Min_cycle;Max_cycle;Signal;HPM_P1;HPM_P2
2021/05/28 00:01:04;;;;;;;4.80;3.22;;;;;;;9.02;86.17;99039.97;5062235;28;20103;-63
2021/05/28 00:03:30;;;;;;;8.68;3.13;;;;;;;9.02;86.51;99036.47;5043905;28;20225;-63
2021/05/28 00:05:55;;;;;;;5.72;3.38;;;;;;;8.82;85.89;99035.72;5058787;28;20338;-63
2021/05/28 00:08:21;;;;;;;5.05;3.70;;;;;;;8.75;87.18;99040.13;5063857;28;20017;-63
2021/05/28 00:10:46;;;;;;;8.27;3.53;;;;;;;8.73;86.32;99041.88;5063298;28;20029;-63
2021/05/28 00:13:13;;;;;;;4.90;3.38;;;;;;;8.72;86.95;99041.03;5064084;28;20062;-63
2021/05/28 00:15:40;;;;;;;6.97;4.00;;;;;;;8.62;86.67;99044.59;5052910;28;20192;-63
2021/05/28 00:18:05;;;;;;;6.38;3.92;;;;;;;8.50;86.78;99044.63;5048421;28;20096;-63
2021/05/28 00:20:31;;;;;;;8.60;4.30;;;;;;;8.57;87.81;99042.84;5043818;28;20028;-63
2021/05/28 00:22:56;;;;;;;5.05;3.70;;;;;;;8.61;87.37;99041.97;5043751;28;20092;-63
2021/05/28 00:25:22;;;;;;;7.85;3.85;;;;;;;8.56;87.63;99044.63;5043723;28;20088;-63
2021/05/28 00:27:47;;;;;;;7.10;3.72;;;;;;;8.57;87.48;99030.59;5043757;28;20018;-63
2021/05/28 00:30:13;;;;;;;5.30;3.35;;;;;;;8.63;87.09;99035.81;5044388;28;20022;-63
2021/05/28 00:32:39;;;;;;;5.68;3.70;;;;;;;8.61;86.00;99036.72;5044122;28;20025;-63
2021/05/28 00:35:05;;;;;;;10.68;3.80;;;;;;;8.54;86.17;99032.34;5043692;28;20029;-63
2021/05/28 00:37:31;;;;;;;7.95;3.80;;;;;;;8.25;85.61;99027.25;5043554;28;20071;-63
2021/05/28 00:39:56;;;;;;;7.68;3.63;;;;;;;8.01;85.81;99037.78;5043696;28;20053;-63
2021/05/28 00:42:21;;;;;;;4.80;3.08;;;;;;;8.03;86.30;99041.28;5054432;28;20051;-63
2021/05/28 00:44:47;;;;;;;5.40;3.58;;;;;;;8.02;86.00;99039.53;5063895;28;20230;-63
2021/05/28 00:47:12;;;;;;;6.05;3.42;;;;;;;7.96;86.42;99044.81;5059472;28;20026;-63
2021/05/28 00:49:38;;;;;;;5.43;3.75;;;;;;;7.95;86.15;99036.94;5047510;28;20044;-63
2021/05/28 00:52:04;;;;;;;6.97;3.92;;;;;;;7.81;85.77;99041.31;5047724;28;20100;-63
2021/05/28 00:54:30;;;;;;;6.00;4.20;;;;;;;7.80;86.71;99031.72;5047398;28;20312;-63
2021/05/28 00:56:55;;;;;;;5.88;3.20;;;;;;;7.76;86.47;99040.47;5047589;28;20032;-63
2021/05/28 00:59:23;;;;;;;9.18;3.67;;;;;;;7.73;86.57;99030.88;5048697;28;20216;-63
2021/05/28 01:01:48;;;;;;;5.45;3.90;;;;;;;7.75;85.88;99038.75;5052923;28;20088;-63
2021/05/28 01:04:14;;;;;;;7.00;3.60;;;;;;;7.70;85.72;99040.50;5057981;28;20030;-63
2021/05/28 01:06:39;;;;;;;5.32;3.80;;;;;;;7.67;85.74;99045.72;5047169;28;20049;-63
2021/05/28 01:09:07;;;;;;;7.60;3.15;;;;;;;7.61;85.24;99041.38;5047109;28;20271;-63
2021/05/28 01:11:33;;;;;;;3.80;3.05;;;;;;;7.17;85.66;99045.75;5048235;28;20017;-63
2021/05/28 01:14:00;;;;;;;6.40;3.40;;;;;;;7.20;86.48;99047.50;5047011;28;20316;-63
2021/05/28 01:16:26;;;;;;;3.95;2.95;;;;;;;7.14;86.61;99048.38;5047220;28;20320;-63
2021/05/28 01:18:52;;;;;;;3.97;3.05;;;;;;;7.23;86.64;99048.38;5050984;28;20087;-63
2021/05/28 01:21:19;;;;;;;4.65;3.60;;;;;;;7.16;86.67;99046.63;5066865;28;20021;-63
2021/05/28 01:23:44;;;;;;;4.90;3.20;;;;;;;7.15;85.59;99052.72;5066540;28;20013;-63
2021/05/28 01:26:10;;;;;;;5.47;3.78;;;;;;;7.08;86.15;99053.59;5064651;28;20126;-63
2021/05/28 01:28:35;;;;;;;5.35;3.92;;;;;;;7.12;86.31;99060.56;5046879;28;20021;-63
2021/05/28 01:31:01;;;;;;;3.60;3.00;;;;;;;7.04;86.22;99057.09;5046770;28;20051;-63
2021/05/28 01:33:27;;;;;;;5.22;3.22;;;;;;;7.06;86.29;99050.13;5046691;28;20022;-63
2021/05/28 01:35:55;;;;;;;7.70;3.70;;;;;;;7.11;86.45;99053.59;5045474;28;20021;-63
2021/05/28 01:38:21;;;;;;;6.70;3.70;;;;;;;6.96;86.61;99061.41;5061274;28;20104;-63
2021/05/28 01:40:46;;;;;;;8.82;4.13;;;;;;;6.99;86.16;99063.19;5065776;28;20020;-63
2021/05/28 01:43:12;;;;;;;6.15;4.63;;;;;;;6.99;86.79;99063.19;5046736;28;20028;-63
2021/05/28 01:45:37;;;;;;;4.88;3.50;;;;;;;7.02;86.64;99064.06;5061604;28;20047;-63
2021/05/28 01:48:03;;;;;;;4.50;3.50;;;;;;;7.02;86.93;99058.81;5066373;28;20220;-63
2021/05/28 01:50:29;;;;;;;4.03;3.13;;;;;;;7.09;86.62;99065.78;5066012;28;20021;-63
2021/05/28 01:52:54;;;;;;;6.28;3.05;;;;;;;7.11;85.49;99069.31;5066016;28;20029;-63
2021/05/28 01:55:20;;;;;;;5.50;3.25;;;;;;;7.03;85.33;99072.78;5065957;28;20020;-63
2021/05/28 01:57:45;;;;;;;34.17;4.38;;;;;;;6.72;86.23;99068.34;5065751;28;20021;-63
2021/05/28 02:00:14;;;;;;;28.10;4.50;;;;;;;6.78;87.20;99069.25;5054706;28;20087;-63
2021/05/28 02:02:40;;;;;;;9.32;4.03;;;;;;;6.89;85.73;99061.44;5047503;28;20068;-63
2021/05/28 02:05:07;;;;;;;13.00;3.65;;;;;;;6.79;86.58;99060.53;5059196;28;20028;-63
2021/05/28 02:07:33;;;;;;;9.75;4.00;;;;;;;6.83;87.00;99064.88;5065633;28;20313;-63
2021/05/28 02:09:58;;;;;;;14.15;3.75;;;;;;;6.88;86.99;99060.56;5066056;28;20031;-63
2021/05/28 02:12:23;;;;;;;7.93;3.78;;;;;;;6.81;86.70;99056.19;5065329;28;20244;-63
2021/05/28 02:14:50;;;;;;;16.90;4.10;;;;;;;6.74;86.70;99067.47;5065840;28;20032;-63
2021/05/28 02:17:16;;;;;;;4.82;3.65;;;;;;;6.77;87.14;99056.16;5065651;28;20045;-63
2021/05/28 02:19:41;;;;;;;13.68;3.97;;;;;;;6.68;87.38;99064.88;5052660;28;20036;-63
2021/05/28 02:22:10;;;;;;;11.07;3.70;;;;;;;6.75;86.82;99064.00;5045753;28;20021;-63
2021/05/28 02:24:36;;;;;;;7.38;4.03;;;;;;;6.71;87.18;99062.25;5045595;28;20045;-63
2021/05/28 02:27:02;;;;;;;5.28;3.42;;;;;;;6.75;86.58;99069.25;5058595;28;20029;-63
2021/05/28 02:29:27;;;;;;;4.20;3.20;;;;;;;6.64;86.47;99065.72;5065554;28;20028;-63
2021/05/28 02:31:53;;;;;;;18.02;3.38;;;;;;;6.66;85.35;99069.22;5065509;28;20047;-63
2021/05/28 02:34:18;;;;;;;4.70;3.10;;;;;;;6.51;85.67;99069.16;5055583;28;20104;-63
2021/05/28 02:36:44;;;;;;;6.85;3.35;;;;;;;6.30;86.58;99074.31;5045551;28;20021;-63
2021/05/28 02:39:09;;;;;;;4.65;3.30;;;;;;;6.47;86.78;99070.03;5045345;28;20269;-62
2021/05/28 02:41:35;;;;;;;8.77;4.05;;;;;;;6.57;87.60;99072.69;5045426;28;20021;-62
2021/05/28 02:44:00;;;;;;;6.28;3.45;;;;;;;6.72;86.62;99068.34;5045743;28;20092;-62
2021/05/28 02:46:26;;;;;;;6.55;3.42;;;;;;;6.74;86.96;99067.47;5045483;28;20248;-63
2021/05/28 02:48:51;;;;;;;6.35;3.38;;;;;;;6.80;86.76;99067.50;5046456;28;20013;-63
2021/05/28 02:51:17;;;;;;;8.07;4.10;;;;;;;6.77;86.20;99070.09;5045270;28;20025;-63
2021/05/28 02:53:43;;;;;;;8.68;4.57;;;;;;;6.79;86.49;99075.34;5045414;28;20178;-63
2021/05/28 02:56:08;;;;;;;4.93;3.17;;;;;;;6.90;86.38;99068.41;5045175;28;20244;-63
2021/05/28 02:58:33;;;;;;;5.43;4.13;;;;;;;6.94;86.06;99076.25;5049650;28;20084;-63
2021/05/28 03:00:59;;;;;;;6.47;4.10;;;;;;;6.92;86.41;99071.88;5060585;28;20033;-63
2021/05/28 03:03:25;;;;;;;7.53;4.70;;;;;;;7.03;86.36;99071.06;5055476;28;20085;-63
2021/05/28 03:05:51;;;;;;;7.03;3.70;;;;;;;6.89;86.13;99077.13;5057540;28;20044;-63
2021/05/28 03:08:20;;;;;;;8.35;3.65;;;;;;;6.99;86.67;99074.50;5044362;28;20335;-63
2021/05/28 03:10:45;;;;;;;4.63;3.70;;;;;;;7.10;86.50;99075.41;5044842;28;20216;-63
2021/05/28 03:13:11;;;;;;;4.95;3.92;;;;;;;7.16;86.34;99072.81;5044784;28;20025;-63
2021/05/28 03:15:37;;;;;;;4.53;2.58;;;;;;;7.12;85.42;99073.66;5044771;28;20021;-63
2021/05/28 03:18:04;;;;;;;5.05;3.25;;;;;;;7.09;85.34;99065.78;5044619;28;20025;-63
2021/05/28 03:20:36;;;;;;;6.18;3.47;;;;;;;7.10;85.62;99067.56;5044923;28;20028;-63
2021/05/28 03:23:04;;;;;;;8.23;3.55;;;;;;;7.17;85.58;99071.03;5054733;28;20029;-63
2021/05/28 03:25:29;;;;;;;4.35;3.17;;;;;;;7.18;85.43;99063.19;5064371;28;20049;-63
2021/05/28 03:27:55;;;;;;;3.92;3.40;;;;;;;7.15;85.89;99065.81;5064467;28;20027;-63
2021/05/28 03:30:20;;;;;;;4.30;3.40;;;;;;;7.20;85.81;99064.06;5046037;28;20069;-63
2021/05/28 03:32:46;;;;;;;4.03;3.17;;;;;;;7.18;86.00;99065.81;5044408;28;20022;-63
2021/05/28 03:35:11;;;;;;;4.28;3.75;;;;;;;7.26;86.12;99069.31;5044435;28;20036;-63
2021/05/28 03:37:40;;;;;;;4.22;3.30;;;;;;;7.33;86.04;99080.66;5044308;28;20025;-63
2021/05/28 03:40:08;;;;;;;4.72;3.60;;;;;;;7.20;85.97;99073.66;5044345;28;20025;-63
2021/05/28 03:42:33;;;;;;;3.83;3.10;;;;;;;7.18;86.17;99075.44;5056427;28;20171;-63
2021/05/28 03:44:59;;;;;;;5.82;3.55;;;;;;;7.15;86.42;99076.28;5064193;28;20028;-63
2021/05/28 03:47:24;;;;;;;7.32;4.20;;;;;;;7.12;86.28;99076.28;5063653;28;20029;-63
2021/05/28 03:49:50;;;;;;;5.13;3.97;;;;;;;7.13;86.70;99077.16;5064159;28;20032;-63
2021/05/28 03:52:15;;;;;;;6.60;3.53;;;;;;;7.29;86.23;99074.56;5064087;28;20084;-63
2021/05/28 03:54:41;;;;;;;5.43;3.97;;;;;;;7.37;86.20;99067.56;5063838;28;20221;-63
2021/05/28 03:57:06;;;;;;;4.85;3.15;;;;;;;7.47;85.50;99068.47;5063726;28;20107;-63
2021/05/28 03:59:32;;;;;;;5.00;3.63;;;;;;;7.47;85.97;99063.22;5063938;28;20056;-63
2021/05/28 04:01:58;;;;;;;5.03;3.35;;;;;;;7.47;85.76;99068.47;5061706;28;20346;-63
2021/05/28 04:04:23;;;;;;;5.20;4.07;;;;;;;7.50;86.01;99068.47;5062707;28;20039;-63
2021/05/28 04:06:49;;;;;;;5.40;4.25;;;;;;;7.34;86.35;99075.41;5063660;28;20044;-63
2021/05/28 04:09:14;;;;;;;9.02;3.97;;;;;;;7.38;85.88;99071.97;5063887;28;20084;-63
2021/05/28 04:11:39;;;;;;;5.80;3.72;;;;;;;7.39;86.59;99071.06;5063342;28;20028;-63
2021/05/28 04:14:05;;;;;;;4.57;3.35;;;;;;;7.41;86.37;99079.81;5063887;28;20256;-63
2021/05/28 04:16:30;;;;;;;4.90;4.07;;;;;;;7.45;87.26;99076.31;5056275;28;20079;-63
2021/05/28 04:18:56;;;;;;;5.03;3.50;;;;;;;7.56;87.02;99079.78;5055558;28;20033;-63
2021/05/28 04:21:21;;;;;;;4.05;3.28;;;;;;;7.63;86.71;99081.53;5058889;28;20021;-63
2021/05/28 04:23:47;;;;;;;6.55;3.85;;;;;;;7.76;85.55;99083.28;5065852;28;20060;-63
2021/05/28 04:26:12;;;;;;;5.85;3.92;;;;;;;7.67;85.10;99096.38;5060815;28;20053;-63
2021/05/28 04:28:38;;;;;;;8.90;3.95;;;;;;;7.67;85.35;99099.00;5048896;28;20033;-63
2021/05/28 04:31:03;;;;;;;4.22;3.10;;;;;;;7.72;85.71;99097.25;5064078;28;20032;-63
2021/05/28 04:33:29;;;;;;;6.07;3.55;;;;;;;7.66;85.61;99099.84;5052544;28;20025;-63
2021/05/28 04:35:54;;;;;;;5.47;3.40;;;;;;;7.56;86.14;99095.50;5053220;28;20021;-63
2021/05/28 04:38:20;;;;;;;6.50;3.22;;;;;;;7.66;85.81;99102.47;5049475;28;20029;-63
2021/05/28 04:40:48;;;;;;;3.75;3.13;;;;;;;7.79;84.96;99098.97;5060921;28;20025;-63
2021/05/28 04:43:13;;;;;;;10.57;3.60;;;;;;;7.71;85.52;99095.50;5047621;28;20021;-63
2021/05/28 04:45:39;;;;;;;8.55;3.50;;;;;;;7.78;85.08;99097.25;5047795;28;20025;-63
2021/05/28 04:48:04;;;;;;;8.90;4.47;;;;;;;7.82;85.76;99103.38;5047509;28;20084;-63
2021/05/28 04:50:33;;;;;;;5.13;3.47;;;;;;;7.90;85.48;99102.47;5047480;28;20025;-63
2021/05/28 04:52:59;;;;;;;4.40;3.60;;;;;;;8.07;85.15;99108.53;5047394;28;20029;-63
2021/05/28 04:55:26;;;;;;;4.15;2.80;;;;;;;8.22;85.05;99100.69;5047361;28;20228;-63
2021/05/28 04:57:52;;;;;;;5.88;3.65;;;;;;;8.32;85.46;99112.00;5047293;28;20202;-63
2021/05/28 05:00:19;;;;;;;6.18;4.05;;;;;;;8.42;85.64;99109.38;5047237;28;20022;-63
2021/05/28 05:02:44;;;;;;;4.80;3.88;;;;;;;8.56;85.50;99118.06;5047126;28;20084;-63
2021/05/28 05:05:10;;;;;;;5.57;4.28;;;;;;;8.71;86.00;99112.75;5047225;28;20309;-63
2021/05/28 05:07:36;;;;;;;5.43;4.00;;;;;;;8.82;85.95;99121.47;5047173;28;20029;-63
2021/05/28 05:10:01;;;;;;;4.18;3.72;;;;;;;8.98;85.19;99124.00;5047348;28;20025;-63
2021/05/28 05:12:26;;;;;;;5.40;4.28;;;;;;;9.09;84.88;99125.69;5047068;28;20029;-63
2021/05/28 05:14:52;;;;;;;4.10;3.03;;;;;;;9.23;84.50;99130.84;5047031;28;20084;-63
2021/05/28 05:17:17;;;;;;;5.43;3.60;;;;;;;9.27;84.84;99129.97;5046935;28;20396;-63
2021/05/28 05:19:43;;;;;;;6.63;3.80;;;;;;;9.32;83.85;99131.66;5046942;28;20068;-63
2021/05/28 05:22:08;;;;;;;4.13;3.38;;;;;;;9.38;83.24;99139.50;5046853;28;20021;-63
2021/05/28 05:24:34;;;;;;;7.75;3.45;;;;;;;9.19;84.01;99139.63;5046951;28;20032;-63
2021/05/28 05:26:59;;;;;;;5.72;3.50;;;;;;;9.28;84.24;99144.84;5046798;28;20025;-63
2021/05/28 05:29:25;;;;;;;7.80;4.05;;;;;;;9.34;84.15;99147.44;5046737;28;20032;-63
2021/05/28 05:31:50;;;;;;;6.90;4.70;;;;;;;9.54;84.12;99151.66;5046269;28;20029;-63
2021/05/28 05:34:15;;;;;;;11.85;4.32;;;;;;;9.72;84.32;99141.03;5046642;28;20032;-63
2021/05/28 05:36:41;;;;;;;7.40;4.32;;;;;;;9.81;84.34;99142.69;5046622;28;20043;-63
2021/05/28 05:39:07;;;;;;;4.75;3.45;;;;;;;9.86;83.73;99144.41;5046491;28;20030;-63
2021/05/28 05:41:32;;;;;;;6.00;4.28;;;;;;;9.88;83.46;99133.88;5046555;28;20025;-63
2021/05/28 05:43:57;;;;;;;6.85;4.40;;;;;;;9.96;83.07;99139.91;5046473;28;20026;-63
2021/05/28 05:46:23;;;;;;;6.40;4.25;;;;;;;10.09;83.58;99136.31;5046469;28;20329;-63
2021/05/28 05:48:48;;;;;;;8.10;4.50;;;;;;;10.24;82.62;99136.19;5046392;28;20021;-63
2021/05/28 05:51:14;;;;;;;7.10;4.68;;;;;;;10.41;81.97;99135.13;5046323;28;20029;-63
2021/05/28 05:53:39;;;;;;;9.68;5.05;;;;;;;10.69;81.74;99135.66;5046400;28;20048;-63
2021/05/28 05:56:05;;;;;;;7.88;4.05;;;;;;;10.80;80.95;99136.44;5046291;28;20217;-63
2021/05/28 05:58:30;;;;;;;8.23;4.72;;;;;;;11.02;80.96;99136.13;5046382;28;20089;-63
2021/05/28 06:00:56;;;;;;;4.25;3.45;;;;;;;11.33;80.18;99136.56;5046154;28;20224;-63
2021/05/28 06:03:21;;;;;;;5.90;3.92;;;;;;;11.60;79.19;99141.44;5046061;28;20049;-63
2021/05/28 06:05:47;;;;;;;10.20;4.78;;;;;;;11.87;76.36;99143.66;5046060;28;20040;-63
2021/05/28 06:08:12;;;;;;;10.60;4.65;;;;;;;12.12;76.91;99147.63;5046081;28;20217;-63
2021/05/28 06:10:38;;;;;;;8.93;4.80;;;;;;;12.52;76.12;99159.22;5046038;28;20049;-63
2021/05/28 06:13:07;;;;;;;8.48;4.20;;;;;;;14.02;69.93;99151.53;5045935;28;20025;-63
2021/05/28 06:15:33;;;;;;;8.43;4.47;;;;;;;14.33;68.36;99152.53;5045877;28;20025;-63
2021/05/28 06:17:59;;;;;;;7.85;4.50;;;;;;;13.89;69.10;99152.75;5045786;28;20201;-63
2021/05/28 06:20:24;;;;;;;6.22;3.95;;;;;;;13.99;68.28;99156.91;5045825;28;20051;-63
2021/05/28 06:22:50;;;;;;;8.95;4.38;;;;;;;13.81;68.52;99160.88;5045793;28;20036;-63
2021/05/28 06:25:15;;;;;;;9.73;4.60;;;;;;;13.94;69.29;99166.72;5045633;28;20491;-63
2021/05/28 06:27:42;;;;;;;9.35;4.85;;;;;;;13.78;66.38;99170.66;5045726;28;20052;-63
2021/05/28 06:30:08;;;;;;;8.90;4.88;;;;;;;13.61;67.77;99175.47;5045655;28;20028;-63
2021/05/28 06:32:33;;;;;;;8.27;4.68;;;;;;;13.95;65.99;99168.50;5045686;28;20018;-63
2021/05/28 06:34:59;;;;;;;10.63;4.55;;;;;;;14.05;65.33;99164.72;5045563;28;20033;-63
2021/05/28 06:37:24;;;;;;;8.27;4.25;;;;;;;14.04;66.08;99178.81;5045419;28;20071;-63
2021/05/28 06:39:50;;;;;;;9.95;4.70;;;;;;;13.67;66.82;99188.56;5045460;28;20316;-63
2021/05/28 06:42:15;;;;;;;9.48;4.88;;;;;;;13.95;65.99;99179.06;5044974;28;20029;-63
2021/05/28 06:44:41;;;;;;;9.20;4.55;;;;;;;14.03;65.42;99177.09;5044946;28;20026;-63
2021/05/28 06:47:06;;;;;;;7.32;4.38;;;;;;;13.89;66.28;99169.47;5045326;28;20055;-63
2021/05/28 06:49:31;;;;;;;7.97;4.63;;;;;;;13.23;67.75;99173.69;5045262;28;20063;-63
2021/05/28 06:51:57;;;;;;;5.95;4.22;;;;;;;13.35;66.89;99175.19;5045176;28;20071;-63
2021/05/28 06:54:22;;;;;;;7.15;4.47;;;;;;;14.48;63.12;99170.66;5045176;28;20041;-63
2021/05/28 06:56:48;;;;;;;9.73;4.35;;;;;;;16.19;60.77;99165.50;5045152;28;20025;-63
2021/05/28 06:59:13;;;;;;;8.90;4.30;;;;;;;16.87;56.62;99166.63;5045010;28;20167;-63
2021/05/28 07:01:39;;;;;;;11.05;4.18;;;;;;;17.48;54.78;99169.72;5045271;28;20048;-64
2021/05/28 07:04:05;;;;;;;8.18;3.47;;;;;;;16.93;55.14;99171.75;5044930;28;20044;-64
2021/05/28 07:06:31;;;;;;;6.78;3.83;;;;;;;17.00;54.98;99175.06;5045191;28;20084;-64
2021/05/28 07:08:57;;;;;;;8.57;4.00;;;;;;;16.68;56.20;99168.22;5044907;28;20193;-64
2021/05/28 07:11:24;;;;;;;7.63;3.78;;;;;;;16.98;55.23;99172.44;5045088;28;20049;-64
2021/05/28 07:13:49;;;;;;;12.07;4.45;;;;;;;17.54;53.62;99170.38;5044815;28;20026;-64
2021/05/28 07:16:14;;;;;;;11.65;3.85;;;;;;;17.39;52.29;99175.34;5044752;28;20036;-64
2021/05/28 07:18:40;;;;;;;8.18;3.65;;;;;;;17.12;54.27;99178.13;5044621;28;20025;-64
2021/05/28 07:21:06;;;;;;;9.60;3.85;;;;;;;17.25;54.69;99158.13;5044672;28;20088;-64
2021/05/28 07:23:31;;;;;;;5.65;3.35;;;;;;;17.05;52.78;99171.31;5044603;28;20393;-64
2021/05/28 07:26:00;;;;;;;6.60;3.90;;;;;;;17.87;54.03;99176.16;5044328;28;20173;-64
2021/05/28 07:28:27;;;;;;;10.00;4.32;;;;;;;18.01;50.95;99166.69;5044528;28;20057;-64
2021/05/28 07:30:54;;;;;;;8.70;3.40;;;;;;;17.62;50.84;99167.41;5044723;28;20288;-64
2021/05/28 07:33:20;;;;;;;9.13;4.00;;;;;;;16.83;52.34;99153.50;5044425;28;20025;-64
2021/05/28 07:35:45;;;;;;;7.95;4.13;;;;;;;17.83;50.92;99161.22;5044662;28;20084;-64
2021/05/28 07:38:11;;;;;;;8.80;3.70;;;;;;;18.86;49.99;99155.94;5044293;28;20053;-64
2021/05/28 07:40:37;;;;;;;7.57;4.35;;;;;;;18.46;52.52;99151.47;5044373;28;20189;-64
2021/05/28 07:43:03;;;;;;;8.70;3.20;;;;;;;17.85;49.18;99164.69;5044281;28;20030;-64
2021/05/28 07:45:29;;;;;;;9.00;2.78;;;;;;;17.30;49.93;99159.75;5044242;28;20029;-64
2021/05/28 07:47:55;;;;;;;6.88;3.25;;;;;;;17.31;51.74;99156.16;5044166;28;20018;-64
2021/05/28 07:50:20;;;;;;;5.82;2.70;;;;;;;18.57;46.63;99156.34;5044207;28;20021;-64
2021/05/28 07:52:46;;;;;;;6.80;3.33;;;;;;;18.19;47.41;99149.94;5044151;28;20029;-64
2021/05/28 07:55:12;;;;;;;7.82;3.50;;;;;;;18.23;48.12;99153.34;5044069;28;20324;-64
2021/05/28 07:57:38;;;;;;;7.00;3.65;;;;;;;17.77;48.77;99150.81;5044021;28;20033;-64
2021/05/28 08:00:06;;;;;;;7.53;3.53;;;;;;;17.61;48.42;99144.34;5044033;28;20325;-64
2021/05/28 08:02:32;;;;;;;4.40;3.10;;;;;;;17.39;50.16;99154.06;5043927;28;20029;-64
2021/05/28 08:04:57;;;;;;;6.63;2.90;;;;;;;17.53;49.17;99157.09;5043990;28;20044;-64
2021/05/28 08:07:23;;;;;;;3.70;2.47;;;;;;;17.01;50.91;99153.72;5043951;28;20081;-64
2021/05/28 08:09:49;;;;;;;5.38;3.22;;;;;;;16.98;51.59;99153.84;5043975;28;20032;-64
2021/05/28 08:12:16;;;;;;;5.47;3.00;;;;;;;17.68;52.72;99140.53;5044196;28;20085;-64
2021/05/28 08:14:41;;;;;;;5.88;2.85;;;;;;;18.42;49.22;99149.00;5043946;28;20029;-64
2021/05/28 08:17:07;;;;;;;5.30;2.78;;;;;;;18.27;49.54;99146.94;5044157;28;20120;-64
2021/05/28 08:19:32;;;;;;;5.22;2.78;;;;;;;18.47;47.08;99149.66;5043797;28;20075;-64
2021/05/28 08:21:57;;;;;;;11.93;2.72;;;;;;;18.26;46.73;99142.56;5043843;28;20048;-64
2021/05/28 08:24:24;;;;;;;7.22;2.90;;;;;;;18.50;44.93;99146.88;5043823;28;20313;-64
2021/05/28 08:26:49;;;;;;;3.45;2.25;;;;;;;18.75;44.74;99136.88;5043679;28;20046;-64
2021/05/28 08:29:15;;;;;;;7.10;2.55;;;;;;;18.45;45.16;99151.53;5043773;28;20313;-64
2021/05/28 08:31:41;;;;;;;3.83;2.30;;;;;;;18.73;45.21;99142.25;5043778;28;20297;-64
2021/05/28 08:34:06;;;;;;;4.28;2.22;;;;;;;20.17;43.82;99145.25;5043728;28;20021;-64
2021/05/28 08:36:31;;;;;;;6.05;2.28;;;;;;;19.90;43.63;99143.06;5043686;28;20060;-64
2021/05/28 08:38:57;;;;;;;3.78;2.17;;;;;;;19.60;43.78;99145.38;5043844;28;20025;-64
2021/05/28 08:41:22;;;;;;;5.60;2.75;;;;;;;18.70;45.50;99146.88;5043627;28;20017;-64
2021/05/28 08:43:48;;;;;;;7.00;2.50;;;;;;;17.60;48.43;99147.94;5043597;28;20216;-64
2021/05/28 08:46:14;;;;;;;3.08;2.10;;;;;;;18.31;47.79;99140.53;5043602;28;20075;-64
2021/05/28 08:48:40;;;;;;;4.57;2.40;;;;;;;19.08;44.44;99141.56;5043577;28;20309;-64
2021/05/28 08:51:05;;;;;;;3.13;2.20;;;;;;;19.60;44.23;99141.84;5043602;28;20125;-64
2021/05/28 08:53:31;;;;;;;4.25;2.03;;;;;;;19.20;45.37;99142.78;5043506;28;20017;-64
2021/05/28 08:55:56;;;;;;;5.80;2.17;;;;;;;18.26;50.11;99135.41;5043516;28;20021;-64
2021/05/28 08:58:22;;;;;;;3.45;2.25;;;;;;;18.30;48.73;99130.81;5043679;28;20021;-64
2021/05/28 09:00:49;;;;;;;5.20;2.03;;;;;;;18.63;47.55;99140.94;5043465;28;20253;-64
2021/05/28 09:03:29;;;;;;;5.85;2.22;;;;;;;18.89;46.36;99137.97;5043363;28;20105;-64
2021/05/28 09:05:56;;;;;;;5.75;2.47;;;;;;;18.59;46.51;99138.47;5044220;28;20029;-64
2021/05/28 09:08:29;;;;;;;3.60;2.53;;;;;;;20.06;43.62;99131.53;5047147;28;20022;-64
2021/05/28 09:11:15;;;;;;;5.68;1.85;;;;;;;20.69;42.65;99138.97;5047125;28;20114;-64
2021/05/28 09:13:50;;;;;;;4.20;2.08;;;;;;;19.48;44.97;99132.59;5047382;28;20309;-64
2021/05/28 09:16:20;;;;;;;7.10;2.08;;;;;;;18.71;46.74;99135.28;5047039;28;20089;-64
2021/05/28 09:18:52;;;;;;;3.03;1.63;;;;;;;18.45;45.80;99141.72;5047231;28;20029;-64
2021/05/28 09:21:35;;;;;;;3.63;1.90;;;;;;;18.72;46.21;99151.22;5046980;28;20053;-64
2021/05/28 09:24:06;;;;;;;5.72;2.38;;;;;;;19.55;43.69;99143.88;5046924;28;20048;-64
2021/05/28 09:26:34;;;;;;;3.45;2.22;;;;;;;20.11;45.03;99144.66;5046696;28;20037;-64
2021/05/28 09:29:01;;;;;;;5.07;1.95;;;;;;;20.48;45.06;99150.81;5046672;28;20029;-64
2021/05/28 09:31:29;;;;;;;4.47;1.98;;;;;;;21.43;42.98;99152.88;5046714;28;20112;-64
2021/05/28 09:33:57;;;;;;;3.13;2.03;;;;;;;21.48;41.86;99142.78;5046650;28;20021;-64
2021/05/28 09:36:24;;;;;;;4.65;1.90;;;;;;;20.71;42.77;99141.59;5046668;28;20028;-64
2021/05/28 09:38:56;;;;;;;4.00;2.15;;;;;;;19.72;45.47;99142.13;5046542;28;20025;-64
2021/05/28 09:41:38;;;;;;;5.18;2.17;;;;;;;20.71;42.03;99142.47;5046608;28;20032;-64
2021/05/28 09:44:10;;;;;;;3.47;1.95;;;;;;;21.73;39.56;99140.50;5046566;28;20033;-64
2021/05/28 09:46:37;;;;;;;5.40;1.80;;;;;;;22.31;36.50;99144.25;5046472;28;20077;-64
2021/05/28 09:49:07;;;;;;;3.55;2.05;;;;;;;21.24;40.58;99145.00;5046384;28;20017;-64
2021/05/28 09:51:33;;;;;;;3.58;1.48;;;;;;;20.11;42.18;99140.19;5046374;28;20029;-64
2021/05/28 09:54:11;;;;;;;4.05;1.40;;;;;;;19.79;42.39;99143.56;5046315;28;20028;-64
2021/05/28 09:56:37;;;;;;;4.45;1.80;;;;;;;19.13;42.17;99141.34;5046312;28;20049;-64
2021/05/28 09:59:08;;;;;;;3.88;1.90;;;;;;;19.42;43.03;99142.72;5046175;28;20033;-64
2021/05/28 10:01:35;;;;;;;2.35;1.60;;;;;;;19.23;44.19;99148.00;5046535;28;20025;-64
2021/05/28 10:04:03;;;;;;;3.85;1.80;;;;;;;18.83;44.73;99145.41;5046116;28;20088;-64
2021/05/28 10:06:30;;;;;;;4.45;1.30;;;;;;;19.09;43.08;99139.75;5046123;28;20338;-64
2021/05/28 10:09:03;;;;;;;2.72;1.48;;;;;;;19.43;41.89;99131.97;5046322;28;20236;-64
2021/05/28 10:11:29;;;;;;;;;;;;;;;21.04;43.50;99138.03;5046447;28;20025;-64
2021/05/28 10:13:55;;;;;;;2.00;1.30;;;;;;;22.00;39.58;99122.84;5046210;28;19905;-64
2021/05/28 10:16:22;;;;;;;2.22;1.40;;;;;;;21.16;40.64;99132.03;5046180;28;20092;-64
2021/05/28 10:18:49;;;;;;;2.88;1.20;;;;;;;20.63;38.23;99127.75;5044557;28;20255;-64
2021/05/28 10:21:15;;;;;;;3.10;1.42;;;;;;;20.04;38.54;99127.19;5045797;28;20028;-64
2021/05/28 10:23:41;;;;;;;4.18;1.40;;;;;;;20.71;39.18;99123.72;5045825;28;20220;-64
2021/05/28 10:26:06;;;;;;;3.55;1.60;;;;;;;21.60;39.52;99120.66;5045584;28;20049;-64
2021/05/28 10:28:36;;;;;;;4.07;1.48;;;;;;;20.87;39.06;99127.31;5045711;28;20079;-64
2021/05/28 10:31:02;;;;;;;5.38;1.90;;;;;;;21.81;41.01;99122.19;5045662;28;20086;-64
2021/05/28 10:33:31;;;;;;;3.20;1.50;;;;;;;21.72;38.66;99115.50;5045881;28;20309;-64
2021/05/28 10:36:01;;;;;;;1.33;1.00;;;;;;;20.71;38.00;99104.13;5045533;28;20021;-64
2021/05/28 10:38:29;;;;;;;4.70;1.40;;;;;;;20.25;39.29;99110.97;5045448;28;20021;-64
2021/05/28 10:41:15;;;;;;;2.20;1.27;;;;;;;19.37;44.29;99102.91;5045454;28;20029;-64
2021/05/28 10:43:50;;;;;;;1.48;1.08;;;;;;;18.94;45.46;99103.97;5044852;28;20332;-64
2021/05/28 10:46:17;;;;;;;2.47;1.38;;;;;;;20.32;42.98;99107.06;5045378;28;20028;-64
2021/05/28 10:48:43;;;;;;;3.85;1.38;;;;;;;20.78;41.60;99117.09;5045314;28;20017;-64
2021/05/28 10:51:17;;;;;;;3.13;1.30;;;;;;;20.62;38.63;99104.59;5045222;28;20025;-64
2021/05/28 10:53:52;;;;;;;1.67;1.52;;;;;;;20.18;40.48;99109.56;5045208;28;20024;-64
2021/05/28 10:56:19;;;;;;;3.22;1.50;;;;;;;20.59;41.09;99100.28;5045167;28;20084;-64
2021/05/28 10:58:53;;;;;;;2.20;1.20;;;;;;;21.27;38.49;99100.16;5045074;28;20325;-64
2021/05/28 11:01:43;;;;;;;3.20;1.30;;;;;;;21.14;39.64;99099.09;5045072;28;20324;-64
2021/05/28 11:04:12;;;;;;;1.35;1.20;;;;;;;20.98;39.95;99100.88;5045210;28;20307;-64
2021/05/28 11:06:59;;;;;;;3.28;1.10;;;;;;;20.44;39.91;99098.41;5044932;28;20027;-64
2021/05/28 11:09:43;;;;;;;3.17;1.40;;;;;;;20.04;40.21;99090.66;5044958;28;20017;-64
2021/05/28 11:12:12;;;;;;;2.35;1.50;;;;;;;19.97;42.16;99089.25;5045161;28;20029;-64
2021/05/28 11:14:57;;;;;;;4.03;1.88;;;;;;;19.35;42.82;99083.41;5044865;28;20036;-64
2021/05/28 11:17:23;;;;;;;2.42;1.50;;;;;;;19.08;43.26;99096.19;5045069;28;20229;-64
2021/05/28 11:19:52;;;;;;;1.48;1.13;;;;;;;19.16;43.11;99093.19;5044635;28;20037;-64
2021/05/28 11:22:43;;;;;;;2.13;1.45;;;;;;;19.88;42.44;99079.00;5044692;28;20026;-64
2021/05/28 11:25:22;;;;;;;2.28;1.17;;;;;;;20.34;40.65;99073.09;5044333;28;20414;-64
2021/05/28 11:27:56;;;;;;;2.28;1.00;;;;;;;20.08;39.69;99070.84;5044833;28;20309;-64
2021/05/28 11:30:24;;;;;;;4.38;1.20;;;;;;;19.89;39.73;99074.50;5044201;28;20021;-64
2021/05/28 11:32:50;;;;;;;3.80;1.40;;;;;;;18.90;42.72;99074.84;5044737;28;20025;-64
2021/05/28 11:35:17;;;;;;;2.00;0.90;;;;;;;18.89;45.39;99067.78;5044424;28;20087;-64